sensor_id;sensor_type;location;lat;lon;timestamp;P1;durP1;ratioP1;P2;durP2;ratioP2
34832;SDS011;55941;50.800;4.342;2022-12-13T00:01:46;39.85;;;20.23;;
34832;SDS011;55941;50.800;4.342;2022-12-13T00:04:14;40.83;;;19.67;;
34832;SDS011;55941;50.800;4.342;2022-12-13T00:06:40;48.20;;;19.40;;
34832;SDS011;55941;50.800;4.342;2022-12-13T00:09:07;38.15;;;19.67;;
34832;SDS011;55941;50.800;4.342;2022-12-13T00:11:33;47.20;;;18.85;;
34832;SDS011;55941;50.800;4.342;2022-12-13T00:13:59;42.17;;;18.92;;
34832;SDS011;55941;50.800;4.342;2022-12-13T00:16:26;35.70;;;18.67;;
34832;SDS011;55941;50.800;4.342;2022-12-13T00:18:53;44.25;;;20.75;;
34832;SDS011;55941;50.800;4.342;2022-12-13T00:21:21;42.30;;;20.65;;
34832;SDS011;55941;50.800;4.342;2022-12-13T00:23:49;34.10;;;19.55;;
34832;SDS011;55941;50.800;4.342;2022-12-13T00:26:16;43.03;;;18.75;;
34832;SDS011;55941;50.800;4.342;2022-12-13T00:28:43;43.45;;;19.77;;
34832;SDS011;55941;50.800;4.342;2022-12-13T00:31:12;34.20;;;19.70;;
34832;SDS011;55941;50.800;4.342;2022-12-13T00:33:38;39.80;;;19.23;;
34832;SDS011;55941;50.800;4.342;2022-12-13T00:36:04;42.00;;;19.63;;
34832;SDS011;55941;50.800;4.342;2022-12-13T00:38:32;36.50;;;19.35;;
34832;SDS011;55941;50.800;4.342;2022-12-13T00:40:58;37.80;;;19.70;;
34832;SDS011;55941;50.800;4.342;2022-12-13T00:43:25;36.03;;;18.98;;
34832;SDS011;55941;50.800;4.342;2022-12-13T00:45:52;40.28;;;19.85;;
34832;SDS011;55941;50.800;4.342;2022-12-13T00:48:17;38.80;;;18.92;;
34832;SDS011;55941;50.800;4.342;2022-12-13T00:50:43;36.95;;;19.38;;
34832;SDS011;55941;50.800;4.342;2022-12-13T00:53:09;39.88;;;19.60;;
34832;SDS011;55941;50.800;4.342;2022-12-13T00:55:39;38.40;;;18.85;;
34832;SDS011;55941;50.800;4.342;2022-12-13T00:58:05;34.03;;;18.85;;
34832;SDS011;55941;50.800;4.342;2022-12-13T01:00:31;39.58;;;19.63;;
34832;SDS011;55941;50.800;4.342;2022-12-13T01:02:57;42.75;;;19.17;;
34832;SDS011;55941;50.800;4.342;2022-12-13T01:05:22;37.58;;;18.27;;
34832;SDS011;55941;50.800;4.342;2022-12-13T01:07:48;36.95;;;18.65;;
34832;SDS011;55941;50.800;4.342;2022-12-13T01:10:14;35.78;;;18.10;;
34832;SDS011;55941;50.800;4.342;2022-12-13T01:12:39;41.90;;;18.40;;
34832;SDS011;55941;50.800;4.342;2022-12-13T01:15:05;32.83;;;17.98;;
34832;SDS011;55941;50.800;4.342;2022-12-13T01:17:34;34.97;;;18.63;;
34832;SDS011;55941;50.800;4.342;2022-12-13T01:20:00;32.45;;;18.35;;
34832;SDS011;55941;50.800;4.342;2022-12-13T01:22:26;38.95;;;18.95;;
34832;SDS011;55941;50.800;4.342;2022-12-13T01:24:52;37.35;;;18.88;;
34832;SDS011;55941;50.800;4.342;2022-12-13T01:27:18;36.30;;;18.08;;
34832;SDS011;55941;50.800;4.342;2022-12-13T01:29:43;34.67;;;16.95;;
34832;SDS011;55941;50.800;4.342;2022-12-13T01:32:09;33.20;;;18.92;;
34832;SDS011;55941;50.800;4.342;2022-12-13T01:34:36;30.83;;;17.63;;
34832;SDS011;55941;50.800;4.342;2022-12-13T01:37:02;34.20;;;17.88;;
34832;SDS011;55941;50.800;4.342;2022-12-13T01:39:28;34.80;;;17.10;;
34832;SDS011;55941;50.800;4.342;2022-12-13T01:41:55;35.05;;;18.70;;
34832;SDS011;55941;50.800;4.342;2022-12-13T01:47:27;33.30;;;18.35;;
34832;SDS011;55941;50.800;4.342;2022-12-13T01:49:56;33.17;;;17.83;;
34832;SDS011;55941;50.800;4.342;2022-12-13T01:52:27;37.55;;;19.30;;
34832;SDS011;55941;50.800;4.342;2022-12-13T01:54:55;36.83;;;17.23;;
34832;SDS011;55941;50.800;4.342;2022-12-13T01:57:23;39.72;;;17.95;;
34832;SDS011;55941;50.800;4.342;2022-12-13T01:59:50;31.98;;;17.45;;
34832;SDS011;55941;50.800;4.342;2022-12-13T02:02:17;33.03;;;16.63;;
34832;SDS011;55941;50.800;4.342;2022-12-13T02:04:51;31.17;;;16.88;;
34832;SDS011;55941;50.800;4.342;2022-12-13T02:07:31;31.17;;;17.13;;
34832;SDS011;55941;50.800;4.342;2022-12-13T02:10:00;37.58;;;17.33;;
34832;SDS011;55941;50.800;4.342;2022-12-13T02:12:30;33.70;;;16.85;;
34832;SDS011;55941;50.800;4.342;2022-12-13T02:15:01;29.90;;;15.55;;
34832;SDS011;55941;50.800;4.342;2022-12-13T02:17:53;30.67;;;15.50;;
34832;SDS011;55941;50.800;4.342;2022-12-13T02:20:42;29.35;;;15.82;;
34832;SDS011;55941;50.800;4.342;2022-12-13T02:32:29;30.88;;;14.63;;
34832;SDS011;55941;50.800;4.342;2022-12-13T02:35:24;29.35;;;15.13;;
34832;SDS011;55941;50.800;4.342;2022-12-13T02:41:13;27.25;;;13.45;;
34832;SDS011;55941;50.800;4.342;2022-12-13T02:46:19;24.85;;;13.90;;
34832;SDS011;55941;50.800;4.342;2022-12-13T02:48:46;25.52;;;13.95;;
34832;SDS011;55941;50.800;4.342;2022-12-13T02:51:15;23.27;;;13.63;;
34832;SDS011;55941;50.800;4.342;2022-12-13T02:53:43;26.67;;;14.30;;
34832;SDS011;55941;50.800;4.342;2022-12-13T02:56:10;24.77;;;14.57;;
34832;SDS011;55941;50.800;4.342;2022-12-13T02:58:44;25.02;;;13.70;;
34832;SDS011;55941;50.800;4.342;2022-12-13T03:04:05;28.00;;;14.55;;
34832;SDS011;55941;50.800;4.342;2022-12-13T03:17:40;25.27;;;13.48;;
34832;SDS011;55941;50.800;4.342;2022-12-13T03:20:14;30.35;;;14.40;;
34832;SDS011;55941;50.800;4.342;2022-12-13T03:22:42;28.42;;;14.95;;
34832;SDS011;55941;50.800;4.342;2022-12-13T03:25:08;25.50;;;13.27;;
34832;SDS011;55941;50.800;4.342;2022-12-13T03:27:35;21.08;;;12.23;;
34832;SDS011;55941;50.800;4.342;2022-12-13T03:30:01;22.92;;;13.70;;
34832;SDS011;55941;50.800;4.342;2022-12-13T03:32:27;24.45;;;13.38;;
34832;SDS011;55941;50.800;4.342;2022-12-13T03:34:52;32.75;;;14.80;;
34832;SDS011;55941;50.800;4.342;2022-12-13T03:37:18;20.92;;;12.95;;
34832;SDS011;55941;50.800;4.342;2022-12-13T03:39:44;25.73;;;14.00;;
34832;SDS011;55941;50.800;4.342;2022-12-13T03:42:10;27.30;;;12.98;;
34832;SDS011;55941;50.800;4.342;2022-12-13T03:44:36;26.55;;;12.88;;
34832;SDS011;55941;50.800;4.342;2022-12-13T03:47:02;21.48;;;12.13;;
34832;SDS011;55941;50.800;4.342;2022-12-13T03:49:28;25.85;;;13.70;;
34832;SDS011;55941;50.800;4.342;2022-12-13T03:51:54;26.35;;;13.50;;
34832;SDS011;55941;50.800;4.342;2022-12-13T03:54:20;27.25;;;12.95;;
34832;SDS011;55941;50.800;4.342;2022-12-13T03:56:45;22.35;;;12.90;;
34832;SDS011;55941;50.800;4.342;2022-12-13T03:59:11;24.45;;;13.45;;
34832;SDS011;55941;50.800;4.342;2022-12-13T04:01:37;25.25;;;13.23;;
34832;SDS011;55941;50.800;4.342;2022-12-13T04:04:03;23.25;;;12.02;;
34832;SDS011;55941;50.800;4.342;2022-12-13T04:06:29;22.63;;;12.57;;
34832;SDS011;55941;50.800;4.342;2022-12-13T04:08:55;23.02;;;13.02;;
34832;SDS011;55941;50.800;4.342;2022-12-13T04:11:20;23.75;;;13.70;;
34832;SDS011;55941;50.800;4.342;2022-12-13T04:14:05;23.52;;;13.38;;
34832;SDS011;55941;50.800;4.342;2022-12-13T04:16:31;26.95;;;12.80;;
34832;SDS011;55941;50.800;4.342;2022-12-13T04:18:57;22.75;;;12.57;;
34832;SDS011;55941;50.800;4.342;2022-12-13T04:21:23;25.17;;;13.43;;
34832;SDS011;55941;50.800;4.342;2022-12-13T04:23:49;25.90;;;13.68;;
34832;SDS011;55941;50.800;4.342;2022-12-13T04:26:15;25.02;;;13.23;;
34832;SDS011;55941;50.800;4.342;2022-12-13T04:28:41;23.13;;;13.35;;
34832;SDS011;55941;50.800;4.342;2022-12-13T04:31:07;25.10;;;13.50;;
34832;SDS011;55941;50.800;4.342;2022-12-13T04:33:32;26.98;;;13.20;;
34832;SDS011;55941;50.800;4.342;2022-12-13T04:35:58;28.02;;;13.18;;
34832;SDS011;55941;50.800;4.342;2022-12-13T04:38:24;24.50;;;13.25;;
34832;SDS011;55941;50.800;4.342;2022-12-13T04:40:50;30.00;;;13.45;;
34832;SDS011;55941;50.800;4.342;2022-12-13T04:43:16;24.25;;;14.15;;
34832;SDS011;55941;50.800;4.342;2022-12-13T04:45:42;27.63;;;13.40;;
34832;SDS011;55941;50.800;4.342;2022-12-13T04:48:07;27.73;;;13.73;;
34832;SDS011;55941;50.800;4.342;2022-12-13T04:50:33;24.80;;;14.32;;
34832;SDS011;55941;50.800;4.342;2022-12-13T04:53:01;28.98;;;14.55;;
34832;SDS011;55941;50.800;4.342;2022-12-13T04:55:27;28.17;;;14.10;;
34832;SDS011;55941;50.800;4.342;2022-12-13T04:57:53;26.55;;;14.45;;
34832;SDS011;55941;50.800;4.342;2022-12-13T05:00:18;28.05;;;14.43;;
34832;SDS011;55941;50.800;4.342;2022-12-13T05:02:46;33.10;;;14.57;;
34832;SDS011;55941;50.800;4.342;2022-12-13T05:05:12;28.83;;;14.18;;
34832;SDS011;55941;50.800;4.342;2022-12-13T05:07:38;27.20;;;14.10;;
34832;SDS011;55941;50.800;4.342;2022-12-13T05:10:04;27.25;;;14.50;;
34832;SDS011;55941;50.800;4.342;2022-12-13T05:12:31;26.77;;;14.40;;
34832;SDS011;55941;50.800;4.342;2022-12-13T05:14:57;29.55;;;15.60;;
34832;SDS011;55941;50.800;4.342;2022-12-13T05:17:23;29.90;;;15.32;;
34832;SDS011;55941;50.800;4.342;2022-12-13T05:19:48;28.55;;;15.82;;
34832;SDS011;55941;50.800;4.342;2022-12-13T05:22:14;29.70;;;16.15;;
34832;SDS011;55941;50.800;4.342;2022-12-13T05:24:41;27.75;;;15.63;;
34832;SDS011;55941;50.800;4.342;2022-12-13T05:27:08;29.00;;;15.10;;
34832;SDS011;55941;50.800;4.342;2022-12-13T05:29:34;29.73;;;15.07;;
34832;SDS011;55941;50.800;4.342;2022-12-13T05:32:00;31.80;;;15.25;;
34832;SDS011;55941;50.800;4.342;2022-12-13T05:34:26;33.67;;;15.60;;
34832;SDS011;55941;50.800;4.342;2022-12-13T05:36:53;30.20;;;15.35;;
34832;SDS011;55941;50.800;4.342;2022-12-13T05:39:19;27.33;;;15.80;;
34832;SDS011;55941;50.800;4.342;2022-12-13T05:41:45;31.50;;;15.55;;
34832;SDS011;55941;50.800;4.342;2022-12-13T05:44:11;38.65;;;15.70;;
34832;SDS011;55941;50.800;4.342;2022-12-13T05:46:39;31.63;;;16.17;;
34832;SDS011;55941;50.800;4.342;2022-12-13T05:49:05;33.88;;;15.98;;
34832;SDS011;55941;50.800;4.342;2022-12-13T05:51:31;26.08;;;14.57;;
34832;SDS011;55941;50.800;4.342;2022-12-13T05:53:57;34.35;;;15.02;;
34832;SDS011;55941;50.800;4.342;2022-12-13T05:56:23;33.13;;;16.02;;
34832;SDS011;55941;50.800;4.342;2022-12-13T05:58:49;31.70;;;16.10;;
34832;SDS011;55941;50.800;4.342;2022-12-13T06:01:15;29.30;;;14.80;;
34832;SDS011;55941;50.800;4.342;2022-12-13T06:03:43;32.92;;;16.08;;
34832;SDS011;55941;50.800;4.342;2022-12-13T06:06:11;31.63;;;16.45;;
34832;SDS011;55941;50.800;4.342;2022-12-13T06:08:37;31.33;;;16.48;;
34832;SDS011;55941;50.800;4.342;2022-12-13T06:11:04;31.35;;;15.82;;
34832;SDS011;55941;50.800;4.342;2022-12-13T06:13:31;30.10;;;15.20;;
34832;SDS011;55941;50.800;4.342;2022-12-13T06:16:03;32.05;;;16.33;;
34832;SDS011;55941;50.800;4.342;2022-12-13T06:18:30;29.88;;;15.40;;
34832;SDS011;55941;50.800;4.342;2022-12-13T06:20:59;29.90;;;15.05;;
34832;SDS011;55941;50.800;4.342;2022-12-13T06:23:28;29.25;;;14.73;;
34832;SDS011;55941;50.800;4.342;2022-12-13T06:25:55;35.00;;;15.93;;
34832;SDS011;55941;50.800;4.342;2022-12-13T06:28:22;31.00;;;16.50;;
34832;SDS011;55941;50.800;4.342;2022-12-13T06:30:48;32.38;;;16.55;;
34832;SDS011;55941;50.800;4.342;2022-12-13T06:33:20;33.30;;;16.20;;
34832;SDS011;55941;50.800;4.342;2022-12-13T06:35:46;32.63;;;15.75;;
34832;SDS011;55941;50.800;4.342;2022-12-13T06:38:12;34.00;;;16.90;;
34832;SDS011;55941;50.800;4.342;2022-12-13T06:40:38;42.20;;;16.98;;
34832;SDS011;55941;50.800;4.342;2022-12-13T06:43:04;26.25;;;15.02;;
34832;SDS011;55941;50.800;4.342;2022-12-13T06:45:30;31.33;;;16.55;;
34832;SDS011;55941;50.800;4.342;2022-12-13T06:47:57;34.42;;;16.75;;
34832;SDS011;55941;50.800;4.342;2022-12-13T06:50:23;32.20;;;16.67;;
34832;SDS011;55941;50.800;4.342;2022-12-13T06:52:49;30.02;;;16.38;;
34832;SDS011;55941;50.800;4.342;2022-12-13T06:55:15;32.08;;;16.50;;
34832;SDS011;55941;50.800;4.342;2022-12-13T06:57:41;39.42;;;16.40;;
34832;SDS011;55941;50.800;4.342;2022-12-13T07:00:08;37.97;;;17.00;;
34832;SDS011;55941;50.800;4.342;2022-12-13T07:02:34;38.78;;;17.83;;
34832;SDS011;55941;50.800;4.342;2022-12-13T07:05:02;39.13;;;17.38;;
34832;SDS011;55941;50.800;4.342;2022-12-13T07:07:28;34.13;;;15.30;;
34832;SDS011;55941;50.800;4.342;2022-12-13T07:09:55;38.92;;;16.83;;
34832;SDS011;55941;50.800;4.342;2022-12-13T07:12:21;39.20;;;17.02;;
34832;SDS011;55941;50.800;4.342;2022-12-13T07:14:47;33.13;;;15.13;;
34832;SDS011;55941;50.800;4.342;2022-12-13T07:17:13;36.10;;;17.23;;
34832;SDS011;55941;50.800;4.342;2022-12-13T07:19:39;31.98;;;15.95;;
34832;SDS011;55941;50.800;4.342;2022-12-13T07:22:05;31.23;;;16.30;;
34832;SDS011;55941;50.800;4.342;2022-12-13T07:24:32;28.65;;;15.95;;
34832;SDS011;55941;50.800;4.342;2022-12-13T07:26:59;36.33;;;16.08;;
34832;SDS011;55941;50.800;4.342;2022-12-13T07:29:24;34.05;;;15.73;;
34832;SDS011;55941;50.800;4.342;2022-12-13T07:31:50;32.03;;;16.30;;
34832;SDS011;55941;50.800;4.342;2022-12-13T07:34:17;34.03;;;15.43;;
34832;SDS011;55941;50.800;4.342;2022-12-13T07:36:43;35.13;;;16.10;;
34832;SDS011;55941;50.800;4.342;2022-12-13T07:39:09;28.60;;;15.68;;
34832;SDS011;55941;50.800;4.342;2022-12-13T07:41:35;35.15;;;15.32;;
34832;SDS011;55941;50.800;4.342;2022-12-13T07:44:01;30.63;;;15.27;;
34832;SDS011;55941;50.800;4.342;2022-12-13T07:46:27;34.55;;;17.10;;
34832;SDS011;55941;50.800;4.342;2022-12-13T07:48:53;44.40;;;16.40;;
34832;SDS011;55941;50.800;4.342;2022-12-13T07:51:19;34.67;;;15.80;;
34832;SDS011;55941;50.800;4.342;2022-12-13T07:53:45;33.13;;;15.25;;
34832;SDS011;55941;50.800;4.342;2022-12-13T07:56:10;33.72;;;15.73;;
34832;SDS011;55941;50.800;4.342;2022-12-13T07:58:37;31.38;;;16.90;;
34832;SDS011;55941;50.800;4.342;2022-12-13T08:01:05;28.20;;;15.63;;
34832;SDS011;55941;50.800;4.342;2022-12-13T08:03:33;33.63;;;16.00;;
34832;SDS011;55941;50.800;4.342;2022-12-13T08:06:05;33.70;;;15.82;;
34832;SDS011;55941;50.800;4.342;2022-12-13T08:08:34;40.65;;;16.60;;
34832;SDS011;55941;50.800;4.342;2022-12-13T08:11:05;34.92;;;15.80;;
34832;SDS011;55941;50.800;4.342;2022-12-13T08:13:33;29.55;;;16.20;;
34832;SDS011;55941;50.800;4.342;2022-12-13T08:16:01;28.80;;;15.00;;
34832;SDS011;55941;50.800;4.342;2022-12-13T08:18:30;31.02;;;15.85;;
34832;SDS011;55941;50.800;4.342;2022-12-13T08:21:03;33.45;;;16.83;;
34832;SDS011;55941;50.800;4.342;2022-12-13T08:23:30;33.15;;;16.40;;
34832;SDS011;55941;50.800;4.342;2022-12-13T08:25:59;32.63;;;15.80;;
34832;SDS011;55941;50.800;4.342;2022-12-13T08:28:26;28.30;;;16.30;;
34832;SDS011;55941;50.800;4.342;2022-12-13T08:30:52;36.15;;;16.67;;
34832;SDS011;55941;50.800;4.342;2022-12-13T08:33:19;28.27;;;14.77;;
34832;SDS011;55941;50.800;4.342;2022-12-13T08:35:45;39.75;;;15.95;;
34832;SDS011;55941;50.800;4.342;2022-12-13T08:38:11;41.13;;;16.13;;
34832;SDS011;55941;50.800;4.342;2022-12-13T08:40:38;32.03;;;16.13;;
34832;SDS011;55941;50.800;4.342;2022-12-13T08:43:04;31.75;;;16.25;;
34832;SDS011;55941;50.800;4.342;2022-12-13T08:45:30;43.28;;;16.20;;
34832;SDS011;55941;50.800;4.342;2022-12-13T08:47:58;38.08;;;17.30;;
34832;SDS011;55941;50.800;4.342;2022-12-13T08:50:26;31.05;;;15.68;;
34832;SDS011;55941;50.800;4.342;2022-12-13T08:52:53;44.63;;;16.88;;
34832;SDS011;55941;50.800;4.342;2022-12-13T08:55:19;40.92;;;17.10;;
34832;SDS011;55941;50.800;4.342;2022-12-13T08:57:45;31.92;;;17.20;;
34832;SDS011;55941;50.800;4.342;2022-12-13T09:00:12;44.45;;;16.73;;
34832;SDS011;55941;50.800;4.342;2022-12-13T09:02:40;32.63;;;16.63;;
34832;SDS011;55941;50.800;4.342;2022-12-13T09:05:08;40.17;;;17.25;;
34832;SDS011;55941;50.800;4.342;2022-12-13T09:07:36;31.75;;;16.45;;
34832;SDS011;55941;50.800;4.342;2022-12-13T09:10:05;31.17;;;16.98;;
34832;SDS011;55941;50.800;4.342;2022-12-13T09:12:31;31.33;;;15.80;;
34832;SDS011;55941;50.800;4.342;2022-12-13T09:14:57;42.35;;;17.15;;
34832;SDS011;55941;50.800;4.342;2022-12-13T09:17:23;30.08;;;17.08;;
34832;SDS011;55941;50.800;4.342;2022-12-13T09:19:49;31.95;;;16.48;;
34832;SDS011;55941;50.800;4.342;2022-12-13T09:22:15;38.47;;;16.90;;
34832;SDS011;55941;50.800;4.342;2022-12-13T09:24:42;34.10;;;16.23;;
34832;SDS011;55941;50.800;4.342;2022-12-13T09:27:08;32.97;;;17.02;;
34832;SDS011;55941;50.800;4.342;2022-12-13T09:29:35;29.83;;;16.42;;
34832;SDS011;55941;50.800;4.342;2022-12-13T09:32:02;32.97;;;17.27;;
34832;SDS011;55941;50.800;4.342;2022-12-13T09:34:28;50.28;;;16.75;;
34832;SDS011;55941;50.800;4.342;2022-12-13T09:36:55;31.20;;;17.13;;
34832;SDS011;55941;50.800;4.342;2022-12-13T09:39:21;33.17;;;16.00;;
34832;SDS011;55941;50.800;4.342;2022-12-13T09:41:48;27.55;;;15.73;;
34832;SDS011;55941;50.800;4.342;2022-12-13T09:44:25;30.08;;;14.90;;
34832;SDS011;55941;50.800;4.342;2022-12-13T09:46:54;28.95;;;16.05;;
34832;SDS011;55941;50.800;4.342;2022-12-13T09:49:26;27.23;;;15.50;;
34832;SDS011;55941;50.800;4.342;2022-12-13T09:51:57;29.00;;;15.82;;
34832;SDS011;55941;50.800;4.342;2022-12-13T09:54:26;28.35;;;14.88;;
34832;SDS011;55941;50.800;4.342;2022-12-13T09:56:52;29.70;;;16.05;;
34832;SDS011;55941;50.800;4.342;2022-12-13T09:59:25;28.80;;;14.77;;
34832;SDS011;55941;50.800;4.342;2022-12-13T10:01:56;29.58;;;15.48;;
34832;SDS011;55941;50.800;4.342;2022-12-13T10:04:36;36.72;;;14.65;;
34832;SDS011;55941;50.800;4.342;2022-12-13T10:07:04;36.58;;;15.93;;
34832;SDS011;55941;50.800;4.342;2022-12-13T10:09:41;29.55;;;15.50;;
34832;SDS011;55941;50.800;4.342;2022-12-13T10:12:07;26.00;;;14.02;;
34832;SDS011;55941;50.800;4.342;2022-12-13T10:14:42;27.52;;;14.45;;
34832;SDS011;55941;50.800;4.342;2022-12-13T10:17:33;27.60;;;14.38;;
34832;SDS011;55941;50.800;4.342;2022-12-13T10:20:03;31.60;;;14.60;;
34832;SDS011;55941;50.800;4.342;2022-12-13T10:22:29;26.90;;;14.00;;
34832;SDS011;55941;50.800;4.342;2022-12-13T10:24:56;29.27;;;14.00;;
34832;SDS011;55941;50.800;4.342;2022-12-13T10:27:29;22.85;;;13.50;;
34832;SDS011;55941;50.800;4.342;2022-12-13T10:30:16;35.03;;;13.93;;
34832;SDS011;55941;50.800;4.342;2022-12-13T10:37:55;28.42;;;14.30;;
34832;SDS011;55941;50.800;4.342;2022-12-13T10:40:37;26.00;;;13.82;;
34832;SDS011;55941;50.800;4.342;2022-12-13T10:43:22;20.40;;;12.02;;
34832;SDS011;55941;50.800;4.342;2022-12-13T10:48:21;28.45;;;13.55;;
34832;SDS011;55941;50.800;4.342;2022-12-13T10:53:27;31.20;;;14.43;;
34832;SDS011;55941;50.800;4.342;2022-12-13T10:55:56;29.98;;;13.18;;
34832;SDS011;55941;50.800;4.342;2022-12-13T10:58:23;24.25;;;12.60;;
34832;SDS011;55941;50.800;4.342;2022-12-13T11:01:20;26.17;;;12.52;;
34832;SDS011;55941;50.800;4.342;2022-12-13T11:04:19;22.15;;;12.20;;
34832;SDS011;55941;50.800;4.342;2022-12-13T11:06:53;22.48;;;12.65;;
34832;SDS011;55941;50.800;4.342;2022-12-13T11:12:02;31.90;;;11.63;;
34832;SDS011;55941;50.800;4.342;2022-12-13T11:14:35;21.52;;;11.60;;
34832;SDS011;55941;50.800;4.342;2022-12-13T11:17:15;30.38;;;12.02;;
34832;SDS011;55941;50.800;4.342;2022-12-13T11:19:50;21.40;;;11.73;;
34832;SDS011;55941;50.800;4.342;2022-12-13T11:22:31;28.83;;;13.18;;
34832;SDS011;55941;50.800;4.342;2022-12-13T11:28:14;24.08;;;12.02;;
34832;SDS011;55941;50.800;4.342;2022-12-13T11:30:58;41.25;;;13.63;;
34832;SDS011;55941;50.800;4.342;2022-12-13T11:33:27;26.80;;;12.93;;
34832;SDS011;55941;50.800;4.342;2022-12-13T11:39:00;21.02;;;12.75;;
34832;SDS011;55941;50.800;4.342;2022-12-13T11:41:39;21.83;;;12.65;;
34832;SDS011;55941;50.800;4.342;2022-12-13T11:44:15;27.65;;;12.63;;
34832;SDS011;55941;50.800;4.342;2022-12-13T11:46:56;25.67;;;12.57;;
34832;SDS011;55941;50.800;4.342;2022-12-13T11:49:28;24.75;;;12.32;;
34832;SDS011;55941;50.800;4.342;2022-12-13T11:52:13;27.65;;;12.98;;
34832;SDS011;55941;50.800;4.342;2022-12-13T11:54:58;23.88;;;11.77;;
34832;SDS011;55941;50.800;4.342;2022-12-13T11:57:34;25.45;;;12.77;;
34832;SDS011;55941;50.800;4.342;2022-12-13T12:00:17;25.75;;;13.32;;
34832;SDS011;55941;50.800;4.342;2022-12-13T12:02:57;26.27;;;12.18;;
34832;SDS011;55941;50.800;4.342;2022-12-13T12:05:37;25.10;;;12.75;;
34832;SDS011;55941;50.800;4.342;2022-12-13T12:08:19;27.33;;;13.77;;
34832;SDS011;55941;50.800;4.342;2022-12-13T12:19:17;30.77;;;13.85;;
34832;SDS011;55941;50.800;4.342;2022-12-13T12:22:01;28.38;;;14.10;;
34832;SDS011;55941;50.800;4.342;2022-12-13T12:30:40;30.27;;;13.10;;
34832;SDS011;55941;50.800;4.342;2022-12-13T12:33:29;26.65;;;11.20;;
34832;SDS011;55941;50.800;4.342;2022-12-13T12:42:14;25.25;;;12.90;;
34832;SDS011;55941;50.800;4.342;2022-12-13T12:47:29;34.60;;;13.45;;
34832;SDS011;55941;50.800;4.342;2022-12-13T12:52:59;26.25;;;13.27;;
34832;SDS011;55941;50.800;4.342;2022-12-13T12:58:27;24.85;;;12.98;;
34832;SDS011;55941;50.800;4.342;2022-12-13T13:01:16;22.88;;;13.30;;
34832;SDS011;55941;50.800;4.342;2022-12-13T13:03:55;25.10;;;12.95;;
34832;SDS011;55941;50.800;4.342;2022-12-13T13:06:29;23.90;;;13.00;;
34832;SDS011;55941;50.800;4.342;2022-12-13T13:09:09;22.27;;;12.65;;
34832;SDS011;55941;50.800;4.342;2022-12-13T13:11:38;27.75;;;13.73;;
34832;SDS011;55941;50.800;4.342;2022-12-13T13:19:43;21.80;;;12.07;;
34832;SDS011;55941;50.800;4.342;2022-12-13T13:22:27;24.80;;;13.15;;
34832;SDS011;55941;50.800;4.342;2022-12-13T13:25:38;23.80;;;12.88;;
34832;SDS011;55941;50.800;4.342;2022-12-13T13:28:04;27.42;;;12.40;;
34832;SDS011;55941;50.800;4.342;2022-12-13T13:30:38;22.67;;;12.60;;
34832;SDS011;55941;50.800;4.342;2022-12-13T13:42:15;25.75;;;13.02;;
34832;SDS011;55941;50.800;4.342;2022-12-13T13:47:38;29.15;;;15.00;;
34832;SDS011;55941;50.800;4.342;2022-12-13T13:55:47;22.42;;;13.27;;
34832;SDS011;55941;50.800;4.342;2022-12-13T14:12:15;29.23;;;13.77;;
34832;SDS011;55941;50.800;4.342;2022-12-13T14:26:19;35.78;;;14.45;;
34832;SDS011;55941;50.800;4.342;2022-12-13T14:29:00;27.08;;;14.23;;
34832;SDS011;55941;50.800;4.342;2022-12-13T14:34:29;24.73;;;15.40;;
34832;SDS011;55941;50.800;4.342;2022-12-13T14:36:58;32.65;;;15.32;;
34832;SDS011;55941;50.800;4.342;2022-12-13T14:39:26;29.83;;;16.30;;
34832;SDS011;55941;50.800;4.342;2022-12-13T14:41:58;27.50;;;14.75;;
34832;SDS011;55941;50.800;4.342;2022-12-13T14:44:32;32.95;;;17.10;;
34832;SDS011;55941;50.800;4.342;2022-12-13T14:47:02;31.75;;;15.93;;
34832;SDS011;55941;50.800;4.342;2022-12-13T14:49:30;33.80;;;17.75;;
34832;SDS011;55941;50.800;4.342;2022-12-13T14:52:04;34.55;;;17.80;;
34832;SDS011;55941;50.800;4.342;2022-12-13T14:54:54;35.10;;;17.85;;
34832;SDS011;55941;50.800;4.342;2022-12-13T14:57:20;32.28;;;17.15;;
34832;SDS011;55941;50.800;4.342;2022-12-13T14:59:48;35.30;;;17.25;;
34832;SDS011;55941;50.800;4.342;2022-12-13T15:02:19;31.20;;;17.35;;
34832;SDS011;55941;50.800;4.342;2022-12-13T15:04:47;31.52;;;17.35;;
34832;SDS011;55941;50.800;4.342;2022-12-13T15:07:19;39.28;;;17.65;;
34832;SDS011;55941;50.800;4.342;2022-12-13T15:09:53;34.35;;;17.88;;
34832;SDS011;55941;50.800;4.342;2022-12-13T15:12:21;31.60;;;17.65;;
34832;SDS011;55941;50.800;4.342;2022-12-13T15:15:16;39.33;;;18.10;;
34832;SDS011;55941;50.800;4.342;2022-12-13T15:17:46;48.22;;;19.48;;
34832;SDS011;55941;50.800;4.342;2022-12-13T15:20:25;37.65;;;18.55;;
34832;SDS011;55941;50.800;4.342;2022-12-13T15:25:57;37.53;;;19.45;;
34832;SDS011;55941;50.800;4.342;2022-12-13T15:28:25;43.70;;;19.23;;
34832;SDS011;55941;50.800;4.342;2022-12-13T15:30:55;36.60;;;20.02;;
34832;SDS011;55941;50.800;4.342;2022-12-13T15:33:25;44.20;;;21.08;;
34832;SDS011;55941;50.800;4.342;2022-12-13T15:38:37;46.50;;;23.60;;
34832;SDS011;55941;50.800;4.342;2022-12-13T15:41:05;41.58;;;21.42;;
34832;SDS011;55941;50.800;4.342;2022-12-13T15:43:41;39.40;;;20.08;;
34832;SDS011;55941;50.800;4.342;2022-12-13T15:46:11;39.97;;;21.70;;
34832;SDS011;55941;50.800;4.342;2022-12-13T15:48:38;45.70;;;21.90;;
34832;SDS011;55941;50.800;4.342;2022-12-13T15:51:13;42.10;;;22.08;;
34832;SDS011;55941;50.800;4.342;2022-12-13T15:54:01;46.97;;;21.27;;
34832;SDS011;55941;50.800;4.342;2022-12-13T15:59:31;41.88;;;22.83;;
34832;SDS011;55941;50.800;4.342;2022-12-13T16:01:58;43.17;;;23.08;;
34832;SDS011;55941;50.800;4.342;2022-12-13T16:04:30;42.08;;;24.40;;
34832;SDS011;55941;50.800;4.342;2022-12-13T16:06:56;48.80;;;24.85;;
34832;SDS011;55941;50.800;4.342;2022-12-13T16:09:26;48.78;;;24.90;;
34832;SDS011;55941;50.800;4.342;2022-12-13T16:19:59;45.63;;;24.10;;
34832;SDS011;55941;50.800;4.342;2022-12-13T16:22:25;49.95;;;25.20;;
34832;SDS011;55941;50.800;4.342;2022-12-13T16:24:51;56.30;;;25.88;;
34832;SDS011;55941;50.800;4.342;2022-12-13T16:27:17;46.05;;;25.45;;
34832;SDS011;55941;50.800;4.342;2022-12-13T16:29:43;53.55;;;25.35;;
34832;SDS011;55941;50.800;4.342;2022-12-13T16:32:08;57.65;;;26.67;;
34832;SDS011;55941;50.800;4.342;2022-12-13T16:34:37;51.42;;;25.90;;
34832;SDS011;55941;50.800;4.342;2022-12-13T16:37:04;54.25;;;28.52;;
34832;SDS011;55941;50.800;4.342;2022-12-13T16:39:30;47.63;;;25.42;;
34832;SDS011;55941;50.800;4.342;2022-12-13T16:41:57;48.08;;;26.95;;
34832;SDS011;55941;50.800;4.342;2022-12-13T16:46:58;53.88;;;26.20;;
34832;SDS011;55941;50.800;4.342;2022-12-13T16:49:25;48.83;;;25.27;;
34832;SDS011;55941;50.800;4.342;2022-12-13T16:51:53;53.85;;;27.58;;
34832;SDS011;55941;50.800;4.342;2022-12-13T16:54:20;53.05;;;28.15;;
34832;SDS011;55941;50.800;4.342;2022-12-13T16:56:47;60.67;;;29.48;;
34832;SDS011;55941;50.800;4.342;2022-12-13T16:59:14;59.15;;;30.65;;
34832;SDS011;55941;50.800;4.342;2022-12-13T17:01:42;56.90;;;27.98;;
34832;SDS011;55941;50.800;4.342;2022-12-13T17:04:13;52.15;;;25.73;;
34832;SDS011;55941;50.800;4.342;2022-12-13T17:06:40;54.53;;;27.23;;